sensor_id;sensor_type;location;lat;lon;timestamp;P1;durP1;ratioP1;P2;durP2;ratioP2
22064;SDS011;11197;53.110;8.468;2023-12-29T00:01:31;11.68;;;2.08;;
22064;SDS011;11197;53.110;8.468;2023-12-29T00:03:56;12.23;;;2.38;;
22064;SDS011;11197;53.110;8.468;2023-12-29T00:06:22;9.88;;;2.50;;
22064;SDS011;11197;53.110;8.468;2023-12-29T00:08:48;8.95;;;2.40;;
22064;SDS011;11197;53.110;8.468;2023-12-29T00:11:17;12.80;;;2.35;;
22064;SDS011;11197;53.110;8.468;2023-12-29T00:13:44;8.00;;;1.88;;
22064;SDS011;11197;53.110;8.468;2023-12-29T00:16:10;10.02;;;1.90;;
22064;SDS011;11197;53.110;8.468;2023-12-29T00:18:38;10.77;;;2.22;;
22064;SDS011;11197;53.110;8.468;2023-12-29T00:21:05;12.32;;;2.28;;
22064;SDS011;11197;53.110;8.468;2023-12-29T00:23:31;11.10;;;2.20;;
22064;SDS011;11197;53.110;8.468;2023-12-29T00:25:56;8.07;;;2.00;;
22064;SDS011;11197;53.110;8.468;2023-12-29T00:28:22;8.80;;;2.00;;
22064;SDS011;11197;53.110;8.468;2023-12-29T00:30:48;9.45;;;2.35;;
22064;SDS011;11197;53.110;8.468;2023-12-29T00:33:13;9.85;;;2.28;;
22064;SDS011;11197;53.110;8.468;2023-12-29T00:35:39;10.15;;;2.10;;
22064;SDS011;11197;53.110;8.468;2023-12-29T00:38:05;10.40;;;2.00;;
22064;SDS011;11197;53.110;8.468;2023-12-29T00:40:31;14.60;;;2.47;;
22064;SDS011;11197;53.110;8.468;2023-12-29T00:43:02;10.15;;;1.70;;
22064;SDS011;11197;53.110;8.468;2023-12-29T00:45:28;8.75;;;1.85;;
22064;SDS011;11197;53.110;8.468;2023-12-29T00:48:01;10.30;;;2.15;;
22064;SDS011;11197;53.110;8.468;2023-12-29T00:50:27;7.80;;;1.95;;
22064;SDS011;11197;53.110;8.468;2023-12-29T00:52:53;8.55;;;1.95;;
22064;SDS011;11197;53.110;8.468;2023-12-29T00:55:19;9.73;;;2.15;;
22064;SDS011;11197;53.110;8.468;2023-12-29T00:57:45;11.60;;;2.08;;
22064;SDS011;11197;53.110;8.468;2023-12-29T01:00:11;7.18;;;1.83;;
22064;SDS011;11197;53.110;8.468;2023-12-29T01:02:38;8.77;;;1.77;;
22064;SDS011;11197;53.110;8.468;2023-12-29T01:05:04;7.88;;;1.67;;
22064;SDS011;11197;53.110;8.468;2023-12-29T01:07:30;7.22;;;1.75;;
22064;SDS011;11197;53.110;8.468;2023-12-29T01:09:56;7.72;;;1.80;;
22064;SDS011;11197;53.110;8.468;2023-12-29T01:12:22;8.02;;;1.80;;
22064;SDS011;11197;53.110;8.468;2023-12-29T01:14:48;8.40;;;1.80;;
22064;SDS011;11197;53.110;8.468;2023-12-29T01:17:13;7.15;;;1.60;;
22064;SDS011;11197;53.110;8.468;2023-12-29T01:19:39;8.32;;;1.75;;
22064;SDS011;11197;53.110;8.468;2023-12-29T01:22:06;8.18;;;1.70;;
22064;SDS011;11197;53.110;8.468;2023-12-29T01:24:31;5.38;;;1.67;;
22064;SDS011;11197;53.110;8.468;2023-12-29T01:26:57;6.45;;;1.60;;
22064;SDS011;11197;53.110;8.468;2023-12-29T01:29:24;9.48;;;1.70;;
22064;SDS011;11197;53.110;8.468;2023-12-29T01:31:50;6.40;;;1.50;;
22064;SDS011;11197;53.110;8.468;2023-12-29T01:34:15;7.95;;;1.65;;
22064;SDS011;11197;53.110;8.468;2023-12-29T01:36:41;5.00;;;1.52;;
22064;SDS011;11197;53.110;8.468;2023-12-29T01:39:07;10.18;;;1.73;;
22064;SDS011;11197;53.110;8.468;2023-12-29T01:41:33;8.80;;;1.75;;
22064;SDS011;11197;53.110;8.468;2023-12-29T01:46:25;7.32;;;1.50;;
22064;SDS011;11197;53.110;8.468;2023-12-29T01:48:52;6.20;;;1.40;;
22064;SDS011;11197;53.110;8.468;2023-12-29T01:51:18;4.85;;;1.50;;
22064;SDS011;11197;53.110;8.468;2023-12-29T01:53:46;7.60;;;1.60;;
22064;SDS011;11197;53.110;8.468;2023-12-29T01:56:13;7.25;;;1.20;;
22064;SDS011;11197;53.110;8.468;2023-12-29T01:58:39;4.47;;;0.90;;
22064;SDS011;11197;53.110;8.468;2023-12-29T02:01:05;9.05;;;1.13;;
22064;SDS011;11197;53.110;8.468;2023-12-29T02:03:33;8.02;;;1.55;;
22064;SDS011;11197;53.110;8.468;2023-12-29T02:05:59;5.45;;;1.35;;
22064;SDS011;11197;53.110;8.468;2023-12-29T02:08:26;6.15;;;1.58;;
22064;SDS011;11197;53.110;8.468;2023-12-29T02:10:52;6.40;;;1.20;;
22064;SDS011;11197;53.110;8.468;2023-12-29T02:13:17;7.65;;;1.65;;
22064;SDS011;11197;53.110;8.468;2023-12-29T02:15:43;8.77;;;1.80;;
22064;SDS011;11197;53.110;8.468;2023-12-29T02:18:12;9.77;;;1.98;;
22064;SDS011;11197;53.110;8.468;2023-12-29T02:20:41;8.40;;;1.80;;
22064;SDS011;11197;53.110;8.468;2023-12-29T02:23:07;7.57;;;2.22;;
22064;SDS011;11197;53.110;8.468;2023-12-29T02:25:33;8.45;;;2.47;;
22064;SDS011;11197;53.110;8.468;2023-12-29T02:28:22;8.60;;;2.08;;
22064;SDS011;11197;53.110;8.468;2023-12-29T02:30:52;9.70;;;2.40;;
22064;SDS011;11197;53.110;8.468;2023-12-29T02:33:25;8.60;;;2.13;;
22064;SDS011;11197;53.110;8.468;2023-12-29T02:35:54;9.90;;;2.25;;
22064;SDS011;11197;53.110;8.468;2023-12-29T02:38:24;9.55;;;2.30;;
22064;SDS011;11197;53.110;8.468;2023-12-29T02:40:54;8.43;;;2.20;;
22064;SDS011;11197;53.110;8.468;2023-12-29T02:43:21;8.05;;;2.13;;
22064;SDS011;11197;53.110;8.468;2023-12-29T02:45:46;9.20;;;1.95;;
22064;SDS011;11197;53.110;8.468;2023-12-29T02:48:12;8.10;;;1.80;;
22064;SDS011;11197;53.110;8.468;2023-12-29T02:50:38;6.45;;;1.60;;
22064;SDS011;11197;53.110;8.468;2023-12-29T02:53:05;7.85;;;1.75;;
22064;SDS011;11197;53.110;8.468;2023-12-29T02:55:31;7.00;;;1.33;;
22064;SDS011;11197;53.110;8.468;2023-12-29T02:58:00;9.73;;;1.73;;
22064;SDS011;11197;53.110;8.468;2023-12-29T03:00:27;6.60;;;1.73;;
22064;SDS011;11197;53.110;8.468;2023-12-29T03:02:53;8.63;;;1.60;;
22064;SDS011;11197;53.110;8.468;2023-12-29T03:05:18;11.10;;;2.22;;
22064;SDS011;11197;53.110;8.468;2023-12-29T03:07:44;8.90;;;2.00;;
22064;SDS011;11197;53.110;8.468;2023-12-29T03:10:10;8.75;;;2.47;;
22064;SDS011;11197;53.110;8.468;2023-12-29T03:12:35;8.93;;;1.90;;
22064;SDS011;11197;53.110;8.468;2023-12-29T03:15:01;7.90;;;1.75;;
22064;SDS011;11197;53.110;8.468;2023-12-29T03:17:27;8.95;;;1.90;;
22064;SDS011;11197;53.110;8.468;2023-12-29T03:19:54;6.47;;;2.08;;
22064;SDS011;11197;53.110;8.468;2023-12-29T03:22:20;7.85;;;2.13;;
22064;SDS011;11197;53.110;8.468;2023-12-29T03:24:46;9.98;;;2.45;;
22064;SDS011;11197;53.110;8.468;2023-12-29T03:27:12;8.13;;;2.10;;
22064;SDS011;11197;53.110;8.468;2023-12-29T03:29:37;8.68;;;2.10;;
22064;SDS011;11197;53.110;8.468;2023-12-29T03:32:03;10.77;;;2.38;;
22064;SDS011;11197;53.110;8.468;2023-12-29T03:34:29;3.72;;;1.05;;
22064;SDS011;11197;53.110;8.468;2023-12-29T03:36:56;3.85;;;0.90;;
22064;SDS011;11197;53.110;8.468;2023-12-29T03:39:21;3.58;;;0.75;;
22064;SDS011;11197;53.110;8.468;2023-12-29T03:41:47;5.72;;;1.00;;
22064;SDS011;11197;53.110;8.468;2023-12-29T03:44:12;5.80;;;0.88;;
22064;SDS011;11197;53.110;8.468;2023-12-29T03:46:38;5.03;;;1.10;;
22064;SDS011;11197;53.110;8.468;2023-12-29T03:49:05;6.78;;;0.93;;
22064;SDS011;11197;53.110;8.468;2023-12-29T03:51:30;7.90;;;1.40;;
22064;SDS011;11197;53.110;8.468;2023-12-29T03:53:56;4.45;;;0.80;;
22064;SDS011;11197;53.110;8.468;2023-12-29T03:56:24;6.95;;;1.30;;
22064;SDS011;11197;53.110;8.468;2023-12-29T03:58:49;5.82;;;1.10;;
22064;SDS011;11197;53.110;8.468;2023-12-29T04:01:16;8.57;;;1.88;;
22064;SDS011;11197;53.110;8.468;2023-12-29T04:03:42;9.88;;;1.20;;
22064;SDS011;11197;53.110;8.468;2023-12-29T04:06:09;7.25;;;1.02;;
22064;SDS011;11197;53.110;8.468;2023-12-29T04:08:35;7.78;;;1.40;;
22064;SDS011;11197;53.110;8.468;2023-12-29T04:11:02;6.63;;;1.40;;
22064;SDS011;11197;53.110;8.468;2023-12-29T04:13:29;5.25;;;1.20;;
22064;SDS011;11197;53.110;8.468;2023-12-29T04:15:55;9.07;;;1.50;;
22064;SDS011;11197;53.110;8.468;2023-12-29T04:18:22;8.75;;;1.30;;
22064;SDS011;11197;53.110;8.468;2023-12-29T04:20:49;7.15;;;1.40;;
22064;SDS011;11197;53.110;8.468;2023-12-29T04:23:15;6.20;;;1.52;;
22064;SDS011;11197;53.110;8.468;2023-12-29T04:25:40;6.07;;;1.23;;
22064;SDS011;11197;53.110;8.468;2023-12-29T04:28:07;7.72;;;1.50;;
22064;SDS011;11197;53.110;8.468;2023-12-29T04:30:33;6.75;;;1.38;;
22064;SDS011;11197;53.110;8.468;2023-12-29T04:32:59;8.75;;;1.50;;
22064;SDS011;11197;53.110;8.468;2023-12-29T04:35:25;4.70;;;1.42;;
22064;SDS011;11197;53.110;8.468;2023-12-29T04:37:50;9.35;;;1.80;;
22064;SDS011;11197;53.110;8.468;2023-12-29T04:40:16;8.07;;;1.73;;
22064;SDS011;11197;53.110;8.468;2023-12-29T04:42:42;7.85;;;2.10;;
22064;SDS011;11197;53.110;8.468;2023-12-29T04:45:08;8.32;;;2.03;;
22064;SDS011;11197;53.110;8.468;2023-12-29T04:47:35;10.25;;;2.05;;
22064;SDS011;11197;53.110;8.468;2023-12-29T04:50:01;10.40;;;2.20;;
22064;SDS011;11197;53.110;8.468;2023-12-29T04:52:27;11.68;;;1.95;;
22064;SDS011;11197;53.110;8.468;2023-12-29T04:54:53;9.50;;;2.25;;
22064;SDS011;11197;53.110;8.468;2023-12-29T04:57:18;6.45;;;2.10;;
22064;SDS011;11197;53.110;8.468;2023-12-29T04:59:44;13.15;;;3.03;;
22064;SDS011;11197;53.110;8.468;2023-12-29T05:02:10;11.00;;;3.50;;
22064;SDS011;11197;53.110;8.468;2023-12-29T05:04:35;14.85;;;3.95;;
22064;SDS011;11197;53.110;8.468;2023-12-29T05:07:03;14.23;;;3.63;;
22064;SDS011;11197;53.110;8.468;2023-12-29T05:09:30;11.38;;;2.72;;
22064;SDS011;11197;53.110;8.468;2023-12-29T05:11:56;8.82;;;2.53;;
22064;SDS011;11197;53.110;8.468;2023-12-29T05:14:21;11.95;;;2.78;;
22064;SDS011;11197;53.110;8.468;2023-12-29T05:16:47;10.82;;;3.20;;
22064;SDS011;11197;53.110;8.468;2023-12-29T05:19:13;12.65;;;3.30;;
22064;SDS011;11197;53.110;8.468;2023-12-29T05:21:38;11.80;;;2.78;;
22064;SDS011;11197;53.110;8.468;2023-12-29T05:24:04;12.02;;;3.97;;
22064;SDS011;11197;53.110;8.468;2023-12-29T05:26:31;10.95;;;2.15;;
22064;SDS011;11197;53.110;8.468;2023-12-29T05:28:57;11.35;;;2.40;;
22064;SDS011;11197;53.110;8.468;2023-12-29T05:31:22;13.25;;;2.88;;
22064;SDS011;11197;53.110;8.468;2023-12-29T05:33:48;11.60;;;2.70;;
22064;SDS011;11197;53.110;8.468;2023-12-29T05:36:14;11.20;;;2.70;;
22064;SDS011;11197;53.110;8.468;2023-12-29T05:38:39;13.27;;;3.03;;
22064;SDS011;11197;53.110;8.468;2023-12-29T05:41:06;11.88;;;2.33;;
22064;SDS011;11197;53.110;8.468;2023-12-29T05:43:32;12.20;;;2.80;;
22064;SDS011;11197;53.110;8.468;2023-12-29T05:45:59;8.85;;;2.50;;
22064;SDS011;11197;53.110;8.468;2023-12-29T05:48:25;12.27;;;2.60;;
22064;SDS011;11197;53.110;8.468;2023-12-29T05:50:51;12.07;;;2.50;;
22064;SDS011;11197;53.110;8.468;2023-12-29T05:53:16;11.82;;;2.58;;
22064;SDS011;11197;53.110;8.468;2023-12-29T05:55:45;16.92;;;2.80;;
22064;SDS011;11197;53.110;8.468;2023-12-29T05:58:11;12.13;;;2.42;;
22064;SDS011;11197;53.110;8.468;2023-12-29T06:00:37;12.30;;;2.60;;
22064;SDS011;11197;53.110;8.468;2023-12-29T06:03:04;12.65;;;2.15;;
22064;SDS011;11197;53.110;8.468;2023-12-29T06:05:31;10.80;;;2.50;;
22064;SDS011;11197;53.110;8.468;2023-12-29T06:07:57;13.35;;;2.35;;
22064;SDS011;11197;53.110;8.468;2023-12-29T06:10:23;11.38;;;2.70;;
22064;SDS011;11197;53.110;8.468;2023-12-29T06:12:49;10.60;;;2.80;;
22064;SDS011;11197;53.110;8.468;2023-12-29T06:15:14;15.45;;;2.40;;
22064;SDS011;11197;53.110;8.468;2023-12-29T06:17:40;11.10;;;2.28;;
22064;SDS011;11197;53.110;8.468;2023-12-29T06:20:07;13.25;;;2.17;;
22064;SDS011;11197;53.110;8.468;2023-12-29T06:22:38;12.90;;;2.50;;
22064;SDS011;11197;53.110;8.468;2023-12-29T06:25:10;18.52;;;2.60;;
22064;SDS011;11197;53.110;8.468;2023-12-29T06:27:37;14.57;;;2.13;;
22064;SDS011;11197;53.110;8.468;2023-12-29T06:30:07;11.07;;;2.30;;
22064;SDS011;11197;53.110;8.468;2023-12-29T06:32:34;16.65;;;2.53;;
22064;SDS011;11197;53.110;8.468;2023-12-29T06:35:00;13.88;;;2.58;;
22064;SDS011;11197;53.110;8.468;2023-12-29T06:37:25;11.30;;;2.25;;
22064;SDS011;11197;53.110;8.468;2023-12-29T06:39:51;14.27;;;2.47;;
22064;SDS011;11197;53.110;8.468;2023-12-29T06:42:17;13.63;;;2.30;;
22064;SDS011;11197;53.110;8.468;2023-12-29T06:44:42;12.80;;;1.98;;
22064;SDS011;11197;53.110;8.468;2023-12-29T06:47:08;13.07;;;2.90;;
22064;SDS011;11197;53.110;8.468;2023-12-29T06:49:34;13.55;;;2.17;;
22064;SDS011;11197;53.110;8.468;2023-12-29T06:52:00;14.13;;;2.08;;
22064;SDS011;11197;53.110;8.468;2023-12-29T06:54:26;13.07;;;2.33;;
22064;SDS011;11197;53.110;8.468;2023-12-29T06:56:52;17.42;;;2.60;;
22064;SDS011;11197;53.110;8.468;2023-12-29T06:59:18;15.00;;;2.75;;
22064;SDS011;11197;53.110;8.468;2023-12-29T07:01:45;13.25;;;2.13;;
22064;SDS011;11197;53.110;8.468;2023-12-29T07:04:11;16.15;;;2.92;;
22064;SDS011;11197;53.110;8.468;2023-12-29T07:06:37;16.35;;;2.72;;
22064;SDS011;11197;53.110;8.468;2023-12-29T07:09:03;19.70;;;2.25;;
22064;SDS011;11197;53.110;8.468;2023-12-29T07:11:29;15.77;;;2.50;;
22064;SDS011;11197;53.110;8.468;2023-12-29T07:13:55;17.65;;;2.88;;
22064;SDS011;11197;53.110;8.468;2023-12-29T07:16:20;14.90;;;2.30;;
22064;SDS011;11197;53.110;8.468;2023-12-29T07:18:46;17.20;;;2.88;;
22064;SDS011;11197;53.110;8.468;2023-12-29T07:21:12;13.73;;;2.75;;
22064;SDS011;11197;53.110;8.468;2023-12-29T07:23:40;15.88;;;2.28;;
22064;SDS011;11197;53.110;8.468;2023-12-29T07:26:06;14.98;;;2.50;;
22064;SDS011;11197;53.110;8.468;2023-12-29T07:28:32;14.75;;;2.30;;
22064;SDS011;11197;53.110;8.468;2023-12-29T07:30:58;14.68;;;2.45;;
22064;SDS011;11197;53.110;8.468;2023-12-29T07:33:25;14.32;;;2.97;;
22064;SDS011;11197;53.110;8.468;2023-12-29T07:35:50;18.38;;;2.50;;
22064;SDS011;11197;53.110;8.468;2023-12-29T07:38:16;17.92;;;2.40;;
22064;SDS011;11197;53.110;8.468;2023-12-29T07:40:42;15.32;;;2.72;;
22064;SDS011;11197;53.110;8.468;2023-12-29T07:43:08;15.10;;;3.17;;
22064;SDS011;11197;53.110;8.468;2023-12-29T07:45:34;15.40;;;2.45;;
22064;SDS011;11197;53.110;8.468;2023-12-29T07:48:03;15.88;;;2.42;;
22064;SDS011;11197;53.110;8.468;2023-12-29T07:50:29;16.50;;;2.88;;
22064;SDS011;11197;53.110;8.468;2023-12-29T07:52:55;18.15;;;2.75;;
22064;SDS011;11197;53.110;8.468;2023-12-29T07:55:21;13.88;;;2.63;;
22064;SDS011;11197;53.110;8.468;2023-12-29T07:57:46;14.70;;;2.40;;
22064;SDS011;11197;53.110;8.468;2023-12-29T08:00:16;18.42;;;3.00;;
22064;SDS011;11197;53.110;8.468;2023-12-29T08:02:42;13.18;;;2.55;;
22064;SDS011;11197;53.110;8.468;2023-12-29T08:05:07;14.07;;;2.40;;
22064;SDS011;11197;53.110;8.468;2023-12-29T08:07:33;12.85;;;2.25;;
22064;SDS011;11197;53.110;8.468;2023-12-29T08:10:01;11.23;;;2.20;;
22064;SDS011;11197;53.110;8.468;2023-12-29T08:12:29;16.95;;;3.00;;
22064;SDS011;11197;53.110;8.468;2023-12-29T08:14:55;19.63;;;3.75;;
22064;SDS011;11197;53.110;8.468;2023-12-29T08:17:21;17.08;;;2.90;;
22064;SDS011;11197;53.110;8.468;2023-12-29T08:19:47;16.73;;;2.78;;
22064;SDS011;11197;53.110;8.468;2023-12-29T08:22:13;18.27;;;3.05;;
22064;SDS011;11197;53.110;8.468;2023-12-29T08:24:42;16.13;;;3.13;;
22064;SDS011;11197;53.110;8.468;2023-12-29T08:27:08;21.08;;;3.35;;
22064;SDS011;11197;53.110;8.468;2023-12-29T08:29:35;16.65;;;2.70;;
22064;SDS011;11197;53.110;8.468;2023-12-29T08:32:02;17.95;;;3.50;;
22064;SDS011;11197;53.110;8.468;2023-12-29T08:34:27;19.75;;;3.45;;
22064;SDS011;11197;53.110;8.468;2023-12-29T08:36:53;13.73;;;2.90;;
22064;SDS011;11197;53.110;8.468;2023-12-29T08:39:19;21.83;;;3.08;;
22064;SDS011;11197;53.110;8.468;2023-12-29T08:41:46;14.13;;;2.90;;
22064;SDS011;11197;53.110;8.468;2023-12-29T08:44:12;9.18;;;2.20;;
22064;SDS011;11197;53.110;8.468;2023-12-29T08:46:37;13.43;;;2.38;;
22064;SDS011;11197;53.110;8.468;2023-12-29T08:49:03;11.27;;;1.65;;
22064;SDS011;11197;53.110;8.468;2023-12-29T08:51:29;9.85;;;1.88;;
22064;SDS011;11197;53.110;8.468;2023-12-29T08:53:55;10.50;;;1.73;;
22064;SDS011;11197;53.110;8.468;2023-12-29T08:56:21;10.38;;;1.75;;
22064;SDS011;11197;53.110;8.468;2023-12-29T08:58:46;8.57;;;1.52;;
22064;SDS011;11197;53.110;8.468;2023-12-29T09:01:12;8.68;;;1.55;;
22064;SDS011;11197;53.110;8.468;2023-12-29T09:03:38;14.15;;;2.13;;
22064;SDS011;11197;53.110;8.468;2023-12-29T09:06:03;10.88;;;1.60;;
22064;SDS011;11197;53.110;8.468;2023-12-29T09:08:30;9.68;;;2.00;;
22064;SDS011;11197;53.110;8.468;2023-12-29T09:10:55;9.13;;;1.85;;
22064;SDS011;11197;53.110;8.468;2023-12-29T09:13:21;11.75;;;2.10;;
22064;SDS011;11197;53.110;8.468;2023-12-29T09:15:50;11.65;;;2.03;;
22064;SDS011;11197;53.110;8.468;2023-12-29T09:18:16;8.90;;;1.88;;
22064;SDS011;11197;53.110;8.468;2023-12-29T09:20:41;11.80;;;2.42;;
22064;SDS011;11197;53.110;8.468;2023-12-29T09:23:07;12.02;;;2.30;;
22064;SDS011;11197;53.110;8.468;2023-12-29T09:25:33;13.55;;;2.33;;
22064;SDS011;11197;53.110;8.468;2023-12-29T09:27:58;11.68;;;2.22;;
22064;SDS011;11197;53.110;8.468;2023-12-29T09:30:24;15.88;;;2.97;;
22064;SDS011;11197;53.110;8.468;2023-12-29T09:32:50;14.15;;;2.30;;
22064;SDS011;11197;53.110;8.468;2023-12-29T09:35:15;12.75;;;2.35;;
22064;SDS011;11197;53.110;8.468;2023-12-29T09:37:42;14.52;;;2.65;;
22064;SDS011;11197;53.110;8.468;2023-12-29T09:40:09;9.63;;;2.47;;
22064;SDS011;11197;53.110;8.468;2023-12-29T09:42:36;16.80;;;2.53;;
22064;SDS011;11197;53.110;8.468;2023-12-29T09:45:03;9.73;;;2.00;;
22064;SDS011;11197;53.110;8.468;2023-12-29T09:47:34;15.90;;;2.70;;
22064;SDS011;11197;53.110;8.468;2023-12-29T09:50:06;13.15;;;2.35;;
22064;SDS011;11197;53.110;8.468;2023-12-29T09:52:35;17.60;;;2.70;;
22064;SDS011;11197;53.110;8.468;2023-12-29T09:55:03;11.45;;;2.08;;
22064;SDS011;11197;53.110;8.468;2023-12-29T09:57:32;12.98;;;2.17;;
22064;SDS011;11197;53.110;8.468;2023-12-29T09:59:58;8.55;;;1.40;;
22064;SDS011;11197;53.110;8.468;2023-12-29T10:02:24;11.98;;;2.22;;
22064;SDS011;11197;53.110;8.468;2023-12-29T10:04:50;12.38;;;2.08;;
22064;SDS011;11197;53.110;8.468;2023-12-29T10:07:20;15.15;;;2.10;;
22064;SDS011;11197;53.110;8.468;2023-12-29T10:09:52;11.23;;;2.40;;
22064;SDS011;11197;53.110;8.468;2023-12-29T10:12:19;10.50;;;2.13;;
22064;SDS011;11197;53.110;8.468;2023-12-29T10:14:49;12.60;;;2.15;;
22064;SDS011;11197;53.110;8.468;2023-12-29T10:20:56;11.52;;;2.10;;
22064;SDS011;11197;53.110;8.468;2023-12-29T10:26:05;7.72;;;1.33;;
22064;SDS011;11197;53.110;8.468;2023-12-29T10:28:35;8.85;;;1.73;;
22064;SDS011;11197;53.110;8.468;2023-12-29T10:31:01;8.20;;;1.60;;
22064;SDS011;11197;53.110;8.468;2023-12-29T10:33:27;5.65;;;1.40;;
22064;SDS011;11197;53.110;8.468;2023-12-29T10:35:59;5.45;;;1.05;;
22064;SDS011;11197;53.110;8.468;2023-12-29T10:38:30;7.03;;;1.10;;
22064;SDS011;11197;53.110;8.468;2023-12-29T10:41:12;6.63;;;1.13;;
22064;SDS011;11197;53.110;8.468;2023-12-29T10:43:39;5.93;;;1.02;;
22064;SDS011;11197;53.110;8.468;2023-12-29T10:46:17;7.50;;;1.42;;
22064;SDS011;11197;53.110;8.468;2023-12-29T10:48:43;6.57;;;1.42;;
22064;SDS011;11197;53.110;8.468;2023-12-29T10:51:09;6.75;;;1.25;;
22064;SDS011;11197;53.110;8.468;2023-12-29T10:53:35;9.05;;;1.80;;
22064;SDS011;11197;53.110;8.468;2023-12-29T10:56:01;6.78;;;1.42;;
22064;SDS011;11197;53.110;8.468;2023-12-29T10:58:28;10.35;;;1.40;;
22064;SDS011;11197;53.110;8.468;2023-12-29T11:00:55;9.93;;;1.48;;
22064;SDS011;11197;53.110;8.468;2023-12-29T11:03:21;8.95;;;1.60;;
22064;SDS011;11197;53.110;8.468;2023-12-29T11:05:47;6.18;;;1.48;;
22064;SDS011;11197;53.110;8.468;2023-12-29T11:08:17;5.63;;;1.92;;
22064;SDS011;11197;53.110;8.468;2023-12-29T11:10:43;9.05;;;2.00;;
22064;SDS011;11197;53.110;8.468;2023-12-29T11:13:12;10.18;;;1.63;;
22064;SDS011;11197;53.110;8.468;2023-12-29T11:15:42;8.02;;;1.80;;
22064;SDS011;11197;53.110;8.468;2023-12-29T11:18:13;8.00;;;1.50;;
22064;SDS011;11197;53.110;8.468;2023-12-29T11:20:42;8.40;;;1.90;;
22064;SDS011;11197;53.110;8.468;2023-12-29T11:23:10;10.55;;;2.65;;
22064;SDS011;11197;53.110;8.468;2023-12-29T11:25:38;10.20;;;2.22;;
22064;SDS011;11197;53.110;8.468;2023-12-29T11:28:08;9.82;;;2.10;;
22064;SDS011;11197;53.110;8.468;2023-12-29T11:30:37;6.63;;;1.80;;
22064;SDS011;11197;53.110;8.468;2023-12-29T11:33:21;12.05;;;2.40;;
22064;SDS011;11197;53.110;8.468;2023-12-29T11:35:55;7.70;;;1.63;;
22064;SDS011;11197;53.110;8.468;2023-12-29T11:38:33;5.25;;;1.70;;
22064;SDS011;11197;53.110;8.468;2023-12-29T11:44:02;5.00;;;1.48;;
22064;SDS011;11197;53.110;8.468;2023-12-29T11:46:34;6.32;;;1.60;;
22064;SDS011;11197;53.110;8.468;2023-12-29T11:49:09;6.22;;;1.50;;
22064;SDS011;11197;53.110;8.468;2023-12-29T11:51:36;6.10;;;1.17;;
22064;SDS011;11197;53.110;8.468;2023-12-29T11:54:05;3.90;;;1.23;;
22064;SDS011;11197;53.110;8.468;2023-12-29T11:59:15;5.80;;;1.27;;
22064;SDS011;11197;53.110;8.468;2023-12-29T12:01:54;3.80;;;1.00;;
22064;SDS011;11197;53.110;8.468;2023-12-29T12:07:09;5.07;;;1.00;;
22064;SDS011;11197;53.110;8.468;2023-12-29T12:09:40;5.07;;;0.75;;
22064;SDS011;11197;53.110;8.468;2023-12-29T12:12:06;3.50;;;1.10;;
22064;SDS011;11197;53.110;8.468;2023-12-29T12:14:53;4.82;;;0.80;;
22064;SDS011;11197;53.110;8.468;2023-12-29T12:17:29;5.90;;;1.00;;
22064;SDS011;11197;53.110;8.468;2023-12-29T12:20:08;5.78;;;0.80;;
22064;SDS011;11197;53.110;8.468;2023-12-29T12:22:35;8.07;;;1.27;;
22064;SDS011;11197;53.110;8.468;2023-12-29T12:25:01;7.30;;;1.00;;
22064;SDS011;11197;53.110;8.468;2023-12-29T12:27:28;8.15;;;1.25;;
22064;SDS011;11197;53.110;8.468;2023-12-29T12:29:57;9.77;;;1.40;;
22064;SDS011;11197;53.110;8.468;2023-12-29T12:32:27;7.43;;;1.63;;
22064;SDS011;11197;53.110;8.468;2023-12-29T12:34:53;8.52;;;1.27;;
22064;SDS011;11197;53.110;8.468;2023-12-29T12:37:20;6.60;;;1.10;;
22064;SDS011;11197;53.110;8.468;2023-12-29T12:39:53;9.77;;;1.27;;
22064;SDS011;11197;53.110;8.468;2023-12-29T12:42:19;5.75;;;1.17;;
22064;SDS011;11197;53.110;8.468;2023-12-29T12:45:03;8.57;;;1.40;;
22064;SDS011;11197;53.110;8.468;2023-12-29T12:47:39;12.75;;;1.70;;
22064;SDS011;11197;53.110;8.468;2023-12-29T12:50:10;8.23;;;1.10;;
22064;SDS011;11197;53.110;8.468;2023-12-29T12:52:37;9.43;;;1.40;;
22064;SDS011;11197;53.110;8.468;2023-12-29T12:55:04;10.05;;;1.30;;
22064;SDS011;11197;53.110;8.468;2023-12-29T12:57:30;10.68;;;1.42;;
22064;SDS011;11197;53.110;8.468;2023-12-29T12:59:56;9.48;;;1.25;;
22064;SDS011;11197;53.110;8.468;2023-12-29T13:02:25;8.95;;;1.30;;
22064;SDS011;11197;53.110;8.468;2023-12-29T13:04:51;11.32;;;1.25;;
22064;SDS011;11197;53.110;8.468;2023-12-29T13:07:18;9.25;;;1.05;;
22064;SDS011;11197;53.110;8.468;2023-12-29T13:09:48;12.27;;;1.77;;
22064;SDS011;11197;53.110;8.468;2023-12-29T13:12:15;8.85;;;1.30;;
22064;SDS011;11197;53.110;8.468;2023-12-29T13:14:42;9.50;;;1.85;;
22064;SDS011;11197;53.110;8.468;2023-12-29T13:17:09;7.10;;;1.63;;
22064;SDS011;11197;53.110;8.468;2023-12-29T13:19:36;8.75;;;1.50;;
22064;SDS011;11197;53.110;8.468;2023-12-29T13:22:05;9.80;;;1.65;;
22064;SDS011;11197;53.110;8.468;2023-12-29T13:24:32;6.13;;;1.27;;
22064;SDS011;11197;53.110;8.468;2023-12-29T13:27:04;10.68;;;1.70;;
22064;SDS011;11197;53.110;8.468;2023-12-29T13:29:30;7.15;;;1.50;;
22064;SDS011;11197;53.110;8.468;2023-12-29T13:32:01;6.28;;;1.42;;
22064;SDS011;11197;53.110;8.468;2023-12-29T13:34:50;9.32;;;1.63;;
22064;SDS011;11197;53.110;8.468;2023-12-29T13:37:18;9.65;;;2.33;;
22064;SDS011;11197;53.110;8.468;2023-12-29T13:45:07;10.20;;;1.65;;
22064;SDS011;11197;53.110;8.468;2023-12-29T13:47:35;7.20;;;1.80;;
22064;SDS011;11197;53.110;8.468;2023-12-29T13:50:03;12.20;;;2.10;;
22064;SDS011;11197;53.110;8.468;2023-12-29T13:52:30;11.63;;;2.38;;
22064;SDS011;11197;53.110;8.468;2023-12-29T13:54:57;6.78;;;1.65;;
22064;SDS011;11197;53.110;8.468;2023-12-29T13:57:32;8.48;;;1.70;;
22064;SDS011;11197;53.110;8.468;2023-12-29T14:00:15;9.90;;;1.85;;
22064;SDS011;11197;53.110;8.468;2023-12-29T14:02:43;9.65;;;2.05;;
22064;SDS011;11197;53.110;8.468;2023-12-29T14:05:19;11.73;;;2.03;;
22064;SDS011;11197;53.110;8.468;2023-12-29T14:07:59;9.98;;;1.92;;
22064;SDS011;11197;53.110;8.468;2023-12-29T14:15:36;10.07;;;2.17;;
22064;SDS011;11197;53.110;8.468;2023-12-29T14:20:38;10.55;;;1.88;;
22064;SDS011;11197;53.110;8.468;2023-12-29T14:23:07;12.88;;;1.95;;
22064;SDS011;11197;53.110;8.468;2023-12-29T14:25:35;13.55;;;2.13;;
22064;SDS011;11197;53.110;8.468;2023-12-29T14:28:02;10.98;;;2.20;;
22064;SDS011;11197;53.110;8.468;2023-12-29T14:30:28;12.45;;;2.40;;
22064;SDS011;11197;53.110;8.468;2023-12-29T14:32:57;13.10;;;2.97;;
22064;SDS011;11197;53.110;8.468;2023-12-29T14:35:23;12.90;;;2.95;;
22064;SDS011;11197;53.110;8.468;2023-12-29T14:37:49;12.63;;;2.75;;
22064;SDS011;11197;53.110;8.468;2023-12-29T14:40:15;19.13;;;4.00;;
22064;SDS011;11197;53.110;8.468;2023-12-29T14:42:41;13.55;;;4.00;;
22064;SDS011;11197;53.110;8.468;2023-12-29T14:45:07;14.18;;;3.72;;
22064;SDS011;11197;53.110;8.468;2023-12-29T14:47:34;14.80;;;3.63;;
22064;SDS011;11197;53.110;8.468;2023-12-29T14:50:01;11.63;;;2.40;;
22064;SDS011;11197;53.110;8.468;2023-12-29T14:52:26;14.27;;;3.72;;
22064;SDS011;11197;53.110;8.468;2023-12-29T14:54:52;20.23;;;6.97;;
22064;SDS011;11197;53.110;8.468;2023-12-29T14:57:18;19.42;;;6.07;;
22064;SDS011;11197;53.110;8.468;2023-12-29T14:59:44;15.52;;;3.95;;
22064;SDS011;11197;53.110;8.468;2023-12-29T15:02:10;18.27;;;7.28;;
22064;SDS011;11197;53.110;8.468;2023-12-29T15:04:36;20.48;;;5.97;;
22064;SDS011;11197;53.110;8.468;2023-12-29T15:07:02;16.33;;;3.22;;
22064;SDS011;11197;53.110;8.468;2023-12-29T15:09:29;11.52;;;2.45;;
22064;SDS011;11197;53.110;8.468;2023-12-29T15:11:59;14.77;;;4.40;;